sensor_id;sensor_type;location;lat;lon;timestamp;pressure;altitude;pressure_sealevel;temperature;humidity
32324;BME280;25666;44.350;9.222;2023-06-10T00:01:48;101284.69;;;21.67;100.00
32324;BME280;25666;44.350;9.222;2023-06-10T00:04:14;101284.63;;;21.74;100.00
32324;BME280;25666;44.350;9.222;2023-06-10T00:06:40;101275.38;;;21.63;100.00
32324;BME280;25666;44.350;9.222;2023-06-10T00:09:06;101281.81;;;21.71;100.00
32324;BME280;25666;44.350;9.222;2023-06-10T00:11:36;101276.19;;;21.67;100.00
32324;BME280;25666;44.350;9.222;2023-06-10T00:14:03;101280.25;;;21.63;100.00
32324;BME280;25666;44.350;9.222;2023-06-10T00:16:28;101272.56;;;21.60;100.00
32324;BME280;25666;44.350;9.222;2023-06-10T00:18:54;101271.38;;;21.54;100.00
32324;BME280;25666;44.350;9.222;2023-06-10T00:21:29;101272.63;;;21.49;100.00
32324;BME280;25666;44.350;9.222;2023-06-10T00:23:55;101265.28;;;21.62;100.00
32324;BME280;25666;44.350;9.222;2023-06-10T00:26:23;101261.22;;;21.67;100.00
32324;BME280;25666;44.350;9.222;2023-06-10T00:28:50;101256.78;;;21.55;100.00
32324;BME280;25666;44.350;9.222;2023-06-10T00:31:16;101262.44;;;21.59;100.00
32324;BME280;25666;44.350;9.222;2023-06-10T00:33:42;101257.56;;;21.63;100.00
32324;BME280;25666;44.350;9.222;2023-06-10T00:36:08;101248.69;;;21.64;100.00
32324;BME280;25666;44.350;9.222;2023-06-10T00:38:34;101251.06;;;21.69;100.00
32324;BME280;25666;44.350;9.222;2023-06-10T00:41:01;101255.56;;;21.60;100.00
32324;BME280;25666;44.350;9.222;2023-06-10T00:43:26;101259.69;;;21.52;100.00
32324;BME280;25666;44.350;9.222;2023-06-10T00:45:52;101247.06;;;21.63;100.00
32324;BME280;25666;44.350;9.222;2023-06-10T00:48:18;101244.59;;;21.69;100.00
32324;BME280;25666;44.350;9.222;2023-06-10T00:50:45;101242.25;;;21.53;100.00
32324;BME280;25666;44.350;9.222;2023-06-10T00:53:12;101242.34;;;21.35;100.00
32324;BME280;25666;44.350;9.222;2023-06-10T00:55:38;101244.72;;;21.48;100.00
32324;BME280;25666;44.350;9.222;2023-06-10T00:58:05;101247.53;;;21.51;100.00
32324;BME280;25666;44.350;9.222;2023-06-10T01:00:31;101245.91;;;21.50;100.00
32324;BME280;25666;44.350;9.222;2023-06-10T01:02:56;101245.88;;;21.61;100.00
32324;BME280;25666;44.350;9.222;2023-06-10T01:05:23;101247.88;;;21.64;100.00
32324;BME280;25666;44.350;9.222;2023-06-10T01:08:10;101253.63;;;21.46;100.00
32324;BME280;25666;44.350;9.222;2023-06-10T01:11:28;101244.72;;;21.48;100.00
32324;BME280;25666;44.350;9.222;2023-06-10T01:13:55;101244.81;;;21.26;100.00
32324;BME280;25666;44.350;9.222;2023-06-10T01:16:23;101244.38;;;21.39;100.00
32324;BME280;25666;44.350;9.222;2023-06-10T01:18:52;101236.63;;;21.43;100.00
32324;BME280;25666;44.350;9.222;2023-06-10T01:21:22;101229.75;;;21.44;100.00
32324;BME280;25666;44.350;9.222;2023-06-10T01:23:51;101228.53;;;21.48;100.00
32324;BME280;25666;44.350;9.222;2023-06-10T01:26:19;101229.78;;;21.40;100.00
32324;BME280;25666;44.350;9.222;2023-06-10T01:29:28;101230.97;;;21.43;100.00
32324;BME280;25666;44.350;9.222;2023-06-10T01:31:51;101235.03;;;21.42;100.00
32324;BME280;25666;44.350;9.222;2023-06-10T01:34:21;101235.44;;;21.36;100.00
32324;BME280;25666;44.350;9.222;2023-06-10T01:36:52;101243.16;;;21.36;100.00
32324;BME280;25666;44.350;9.222;2023-06-10T01:39:23;101227.75;;;21.44;100.00
32324;BME280;25666;44.350;9.222;2023-06-10T01:41:49;101233.38;;;21.48;100.00
32324;BME280;25666;44.350;9.222;2023-06-10T01:44:20;101226.91;;;21.51;100.00
32324;BME280;25666;44.350;9.222;2023-06-10T01:46:46;101230.13;;;21.49;100.00
32324;BME280;25666;44.350;9.222;2023-06-10T01:49:15;101230.25;;;21.21;100.00
32324;BME280;25666;44.350;9.222;2023-06-10T01:51:43;101225.75;;;21.34;100.00
32324;BME280;25666;44.350;9.222;2023-06-10T01:54:08;101222.53;;;21.32;100.00
32324;BME280;25666;44.350;9.222;2023-06-10T01:56:34;101222.91;;;21.38;100.00
32324;BME280;25666;44.350;9.222;2023-06-10T01:59:01;101221.28;;;21.36;100.00
32324;BME280;25666;44.350;9.222;2023-06-10T02:01:26;101228.22;;;21.28;100.00
32324;BME280;25666;44.350;9.222;2023-06-10T02:03:52;101227.84;;;21.26;100.00
32324;BME280;25666;44.350;9.222;2023-06-10T02:06:18;101219.34;;;21.23;100.00
32324;BME280;25666;44.350;9.222;2023-06-10T02:08:45;101218.91;;;21.31;100.00
32324;BME280;25666;44.350;9.222;2023-06-10T02:11:11;101218.13;;;21.24;100.00
32324;BME280;25666;44.350;9.222;2023-06-10T02:13:40;101222.56;;;21.25;100.00
32324;BME280;25666;44.350;9.222;2023-06-10T02:16:06;101224.22;;;21.19;100.00
32324;BME280;25666;44.350;9.222;2023-06-10T02:18:31;101218.56;;;21.15;100.00
32324;BME280;25666;44.350;9.222;2023-06-10T02:20:57;101221.84;;;21.10;100.00
32324;BME280;25666;44.350;9.222;2023-06-10T02:23:22;101210.50;;;21.10;100.00
32324;BME280;25666;44.350;9.222;2023-06-10T02:25:48;101209.28;;;21.11;100.00
32324;BME280;25666;44.350;9.222;2023-06-10T02:28:14;101213.72;;;21.16;100.00
32324;BME280;25666;44.350;9.222;2023-06-10T02:30:40;101215.34;;;21.03;100.00
32324;BME280;25666;44.350;9.222;2023-06-10T02:33:07;101216.16;;;21.03;100.00
32324;BME280;25666;44.350;9.222;2023-06-10T02:35:38;101213.00;;;20.87;100.00
32324;BME280;25666;44.350;9.222;2023-06-10T02:38:04;101218.19;;;21.03;100.00
32324;BME280;25666;44.350;9.222;2023-06-10T02:40:31;101210.94;;;21.02;100.00
32324;BME280;25666;44.350;9.222;2023-06-10T02:42:57;101208.50;;;21.11;100.00
32324;BME280;25666;44.350;9.222;2023-06-10T02:45:24;101206.84;;;21.06;100.00
32324;BME280;25666;44.350;9.222;2023-06-10T02:47:51;101194.72;;;21.02;100.00
32324;BME280;25666;44.350;9.222;2023-06-10T02:50:16;101197.97;;;21.04;100.00
32324;BME280;25666;44.350;9.222;2023-06-10T02:52:55;101198.09;;;20.72;100.00
32324;BME280;25666;44.350;9.222;2023-06-10T02:55:21;101199.66;;;20.88;100.00
32324;BME280;25666;44.350;9.222;2023-06-10T02:57:52;101203.28;;;20.88;100.00
32324;BME280;25666;44.350;9.222;2023-06-10T03:00:20;101205.69;;;20.93;100.00
32324;BME280;25666;44.350;9.222;2023-06-10T03:02:47;101199.66;;;20.84;100.00
32324;BME280;25666;44.350;9.222;2023-06-10T03:05:14;101205.69;;;20.90;100.00
32324;BME280;25666;44.350;9.222;2023-06-10T03:07:47;101199.59;;;21.02;100.00
32324;BME280;25666;44.350;9.222;2023-06-10T03:10:15;101210.06;;;21.08;100.00
32324;BME280;25666;44.350;9.222;2023-06-10T03:12:40;101204.84;;;21.07;100.00
32324;BME280;25666;44.350;9.222;2023-06-10T03:15:07;101210.50;;;21.03;100.00
32324;BME280;25666;44.350;9.222;2023-06-10T03:17:33;101219.44;;;21.02;100.00
32324;BME280;25666;44.350;9.222;2023-06-10T03:19:59;101221.44;;;20.98;100.00
32324;BME280;25666;44.350;9.222;2023-06-10T03:22:25;101223.84;;;21.03;100.00
32324;BME280;25666;44.350;9.222;2023-06-10T03:25:00;101221.81;;;21.03;100.00
32324;BME280;25666;44.350;9.222;2023-06-10T03:27:27;101227.56;;;20.78;100.00
32324;BME280;25666;44.350;9.222;2023-06-10T03:29:57;101225.91;;;20.95;100.00
32324;BME280;25666;44.350;9.222;2023-06-10T03:32:23;101223.47;;;20.97;100.00
32324;BME280;25666;44.350;9.222;2023-06-10T03:34:48;101219.00;;;21.03;100.00
32324;BME280;25666;44.350;9.222;2023-06-10T03:37:14;101223.03;;;21.09;100.00
32324;BME280;25666;44.350;9.222;2023-06-10T03:39:41;101221.41;;;21.08;100.00
32324;BME280;25666;44.350;9.222;2023-06-10T03:42:07;101212.13;;;21.04;100.00
32324;BME280;25666;44.350;9.222;2023-06-10T03:44:33;101218.56;;;21.08;100.00
32324;BME280;25666;44.350;9.222;2023-06-10T03:46:59;101219.81;;;21.14;100.00
32324;BME280;25666;44.350;9.222;2023-06-10T03:49:25;101222.22;;;21.09;100.00
32324;BME280;25666;44.350;9.222;2023-06-10T03:51:55;101215.34;;;21.13;100.00
32324;BME280;25666;44.350;9.222;2023-06-10T03:54:21;101219.38;;;21.16;100.00
32324;BME280;25666;44.350;9.222;2023-06-10T03:56:47;101227.47;;;21.07;100.00
32324;BME280;25666;44.350;9.222;2023-06-10T03:59:13;101220.19;;;21.02;100.00
32324;BME280;25666;44.350;9.222;2023-06-10T04:01:39;101214.16;;;21.11;100.00
32324;BME280;25666;44.350;9.222;2023-06-10T04:04:06;101213.72;;;21.16;100.00
32324;BME280;25666;44.350;9.222;2023-06-10T04:06:33;101215.75;;;21.12;100.00
32324;BME280;25666;44.350;9.222;2023-06-10T04:08:59;101211.31;;;21.11;100.00
32324;BME280;25666;44.350;9.222;2023-06-10T04:11:26;101212.13;;;21.01;100.00
32324;BME280;25666;44.350;9.222;2023-06-10T04:13:52;101209.28;;;21.11;100.00
32324;BME280;25666;44.350;9.222;2023-06-10T04:16:18;101212.53;;;21.10;100.00
32324;BME280;25666;44.350;9.222;2023-06-10T04:18:44;101212.91;;;21.12;100.00
32324;BME280;25666;44.350;9.222;2023-06-10T04:21:10;101210.06;;;21.15;100.00
32324;BME280;25666;44.350;9.222;2023-06-10T04:23:36;101212.53;;;21.13;100.00
32324;BME280;25666;44.350;9.222;2023-06-10T04:26:04;101212.91;;;21.19;100.00
32324;BME280;25666;44.350;9.222;2023-06-10T04:28:31;101216.53;;;21.23;100.00
32324;BME280;25666;44.350;9.222;2023-06-10T04:30:58;101213.66;;;21.30;100.00
32324;BME280;25666;44.350;9.222;2023-06-10T04:33:23;101212.44;;;21.27;100.00
32324;BME280;25666;44.350;9.222;2023-06-10T04:35:50;101212.03;;;21.32;100.00
32324;BME280;25666;44.350;9.222;2023-06-10T04:38:17;101210.78;;;21.37;100.00
32324;BME280;25666;44.350;9.222;2023-06-10T04:40:43;101208.34;;;21.39;100.00
32324;BME280;25666;44.350;9.222;2023-06-10T04:43:11;101200.22;;;21.48;100.00
32324;BME280;25666;44.350;9.222;2023-06-10T04:45:36;101207.00;;;21.61;100.00
32324;BME280;25666;44.350;9.222;2023-06-10T04:48:02;101206.03;;;21.85;100.00
32324;BME280;25666;44.350;9.222;2023-06-10T04:50:28;101208.38;;;22.01;100.00
32324;BME280;25666;44.350;9.222;2023-06-10T04:52:54;101202.75;;;21.87;100.00
32324;BME280;25666;44.350;9.222;2023-06-10T04:55:25;101203.56;;;21.87;100.00
32324;BME280;25666;44.350;9.222;2023-06-10T04:57:50;101211.03;;;21.64;100.00
32324;BME280;25666;44.350;9.222;2023-06-10T05:00:18;101206.06;;;21.78;100.00
32324;BME280;25666;44.350;9.222;2023-06-10T05:02:43;101201.91;;;21.97;100.00
32324;BME280;25666;44.350;9.222;2023-06-10T05:05:10;101210.19;;;22.22;100.00
32324;BME280;25666;44.350;9.222;2023-06-10T05:07:35;101203.91;;;22.00;100.00
32324;BME280;25666;44.350;9.222;2023-06-10T05:10:01;101202.88;;;21.73;100.00
32324;BME280;25666;44.350;9.222;2023-06-10T05:12:26;101205.78;;;21.62;100.00
32324;BME280;25666;44.350;9.222;2023-06-10T05:14:52;101201.72;;;21.67;100.00
32324;BME280;25666;44.350;9.222;2023-06-10T05:17:17;101200.44;;;21.71;100.00
32324;BME280;25666;44.350;9.222;2023-06-10T05:19:43;101195.91;;;21.84;100.00
32324;BME280;25666;44.350;9.222;2023-06-10T05:22:09;101192.66;;;21.86;100.00
32324;BME280;25666;44.350;9.222;2023-06-10T05:24:35;101192.41;;;22.18;100.00
32324;BME280;25666;44.350;9.222;2023-06-10T05:27:00;101185.84;;;22.69;100.00
32324;BME280;25666;44.350;9.222;2023-06-10T05:29:26;101182.16;;;23.06;100.00
32324;BME280;25666;44.350;9.222;2023-06-10T05:31:51;101180.59;;;23.01;100.00
32324;BME280;25666;44.350;9.222;2023-06-10T05:34:17;101180.84;;;22.83;100.00
32324;BME280;25666;44.350;9.222;2023-06-10T05:36:42;101189.94;;;22.68;100.00
32324;BME280;25666;44.350;9.222;2023-06-10T05:39:09;101181.47;;;22.61;100.00
32324;BME280;25666;44.350;9.222;2023-06-10T05:41:34;101188.63;;;22.76;100.00
32324;BME280;25666;44.350;9.222;2023-06-10T05:44:00;101183.13;;;22.96;100.00
32324;BME280;25666;44.350;9.222;2023-06-10T05:46:25;101175.19;;;24.21;100.00
32324;BME280;25666;44.350;9.222;2023-06-10T05:48:51;101164.50;;;26.59;100.00
32324;BME280;25666;44.350;9.222;2023-06-10T05:51:16;101159.88;;;27.07;100.00
32324;BME280;25666;44.350;9.222;2023-06-10T05:53:42;101159.41;;;28.13;100.00
32324;BME280;25666;44.350;9.222;2023-06-10T05:56:07;101148.16;;;29.40;100.00
32324;BME280;25666;44.350;9.222;2023-06-10T05:58:33;101147.03;;;27.91;100.00
32324;BME280;25666;44.350;9.222;2023-06-10T06:00:59;101148.78;;;26.68;100.00
32324;BME280;25666;44.350;9.222;2023-06-10T06:03:25;101145.28;;;28.53;100.00
32324;BME280;25666;44.350;9.222;2023-06-10T06:05:50;101149.19;;;27.24;100.00
32324;BME280;25666;44.350;9.222;2023-06-10T06:08:16;101146.94;;;31.44;100.00
32324;BME280;25666;44.350;9.222;2023-06-10T06:10:44;101145.91;;;34.07;100.00
32324;BME280;25666;44.350;9.222;2023-06-10T06:13:10;101144.13;;;35.78;99.37
32324;BME280;25666;44.350;9.222;2023-06-10T06:15:35;101139.44;;;37.88;75.96
32324;BME280;25666;44.350;9.222;2023-06-10T06:18:01;101137.59;;;39.52;63.00
32324;BME280;25666;44.350;9.222;2023-06-10T06:20:26;101145.47;;;39.57;60.51
32324;BME280;25666;44.350;9.222;2023-06-10T06:22:52;101142.50;;;39.68;53.37
32324;BME280;25666;44.350;9.222;2023-06-10T06:25:17;101148.22;;;40.03;48.96
32324;BME280;25666;44.350;9.222;2023-06-10T06:27:43;101151.34;;;39.16;53.93
32324;BME280;25666;44.350;9.222;2023-06-10T06:30:09;101144.88;;;35.36;80.39
32324;BME280;25666;44.350;9.222;2023-06-10T06:32:34;101152.31;;;39.65;60.75
32324;BME280;25666;44.350;9.222;2023-06-10T06:35:00;101150.94;;;43.42;41.82
32324;BME280;25666;44.350;9.222;2023-06-10T06:37:25;101152.91;;;45.47;34.90
32324;BME280;25666;44.350;9.222;2023-06-10T06:40:02;101138.56;;;45.97;33.74
32324;BME280;25666;44.350;9.222;2023-06-10T06:42:29;101140.84;;;46.91;32.42
32324;BME280;25666;44.350;9.222;2023-06-10T06:45:30;101137.47;;;39.63;47.52
32324;BME280;25666;44.350;9.222;2023-06-10T06:47:56;101130.13;;;43.95;38.35
32324;BME280;25666;44.350;9.222;2023-06-10T06:50:21;101124.53;;;38.47;51.45
32324;BME280;25666;44.350;9.222;2023-06-10T06:52:47;101138.56;;;42.55;42.65
32324;BME280;25666;44.350;9.222;2023-06-10T06:55:13;101127.28;;;38.69;53.39
32324;BME280;25666;44.350;9.222;2023-06-10T06:57:38;101133.31;;;44.76;36.88
32324;BME280;25666;44.350;9.222;2023-06-10T07:00:04;101133.41;;;46.27;32.56
32324;BME280;25666;44.350;9.222;2023-06-10T07:02:34;101145.03;;;47.13;30.80
32324;BME280;25666;44.350;9.222;2023-06-10T07:04:59;101136.00;;;41.86;38.91
32324;BME280;25666;44.350;9.222;2023-06-10T07:07:25;101143.63;;;42.81;39.61
32324;BME280;25666;44.350;9.222;2023-06-10T07:09:52;101135.81;;;46.76;31.60
32324;BME280;25666;44.350;9.222;2023-06-10T07:12:17;101142.72;;;44.82;34.77
32324;BME280;25666;44.350;9.222;2023-06-10T07:14:44;101137.69;;;47.29;30.04
32324;BME280;25666;44.350;9.222;2023-06-10T07:17:10;101137.84;;;46.59;30.19
32324;BME280;25666;44.350;9.222;2023-06-10T07:19:35;101138.78;;;46.69;29.96
32324;BME280;25666;44.350;9.222;2023-06-10T07:22:01;101133.06;;;45.25;30.82
32324;BME280;25666;44.350;9.222;2023-06-10T07:24:26;101132.69;;;43.36;33.64
32324;BME280;25666;44.350;9.222;2023-06-10T07:26:52;101136.72;;;44.16;33.83
32324;BME280;25666;44.350;9.222;2023-06-10T07:29:17;101141.81;;;44.15;33.34
32324;BME280;25666;44.350;9.222;2023-06-10T07:31:42;101143.03;;;42.83;34.74
32324;BME280;25666;44.350;9.222;2023-06-10T07:34:08;101139.84;;;43.28;35.59
32324;BME280;25666;44.350;9.222;2023-06-10T07:36:33;101139.38;;;42.43;35.91
32324;BME280;25666;44.350;9.222;2023-06-10T07:38:59;101137.50;;;42.32;35.88
32324;BME280;25666;44.350;9.222;2023-06-10T07:41:24;101136.91;;;41.94;37.80
32324;BME280;25666;44.350;9.222;2023-06-10T07:43:52;101139.38;;;40.95;40.07
32324;BME280;25666;44.350;9.222;2023-06-10T07:46:20;101130.78;;;40.84;41.02
32324;BME280;25666;44.350;9.222;2023-06-10T07:48:47;101133.66;;;38.68;47.40
32324;BME280;25666;44.350;9.222;2023-06-10T07:51:12;101129.00;;;36.00;69.57
32324;BME280;25666;44.350;9.222;2023-06-10T07:53:38;101126.25;;;34.91;86.06
32324;BME280;25666;44.350;9.222;2023-06-10T07:56:03;101127.53;;;33.55;100.00
32324;BME280;25666;44.350;9.222;2023-06-10T07:58:29;101134.84;;;32.29;100.00
32324;BME280;25666;44.350;9.222;2023-06-10T08:00:54;101135.13;;;31.51;100.00
32324;BME280;25666;44.350;9.222;2023-06-10T08:03:20;101139.28;;;31.41;100.00
32324;BME280;25666;44.350;9.222;2023-06-10T08:05:45;101141.75;;;31.15;100.00
32324;BME280;25666;44.350;9.222;2023-06-10T08:08:11;101128.88;;;30.47;100.00
32324;BME280;25666;44.350;9.222;2023-06-10T08:10:36;101137.34;;;30.60;100.00
32324;BME280;25666;44.350;9.222;2023-06-10T08:13:02;101126.72;;;29.53;100.00
32324;BME280;25666;44.350;9.222;2023-06-10T08:15:27;101138.00;;;28.95;100.00
32324;BME280;25666;44.350;9.222;2023-06-10T08:17:53;101130.91;;;29.09;100.00
32324;BME280;25666;44.350;9.222;2023-06-10T08:20:18;101130.84;;;29.21;100.00
32324;BME280;25666;44.350;9.222;2023-06-10T08:22:44;101138.34;;;28.97;100.00
32324;BME280;25666;44.350;9.222;2023-06-10T08:25:10;101133.13;;;29.05;100.00
32324;BME280;25666;44.350;9.222;2023-06-10T08:27:35;101138.50;;;28.59;100.00
32324;BME280;25666;44.350;9.222;2023-06-10T08:30:01;101139.34;;;28.82;100.00
32324;BME280;25666;44.350;9.222;2023-06-10T08:32:27;101139.47;;;29.00;100.00
32324;BME280;25666;44.350;9.222;2023-06-10T08:34:52;101148.47;;;28.89;100.00
32324;BME280;25666;44.350;9.222;2023-06-10T08:37:18;101141.78;;;28.92;100.00
32324;BME280;25666;44.350;9.222;2023-06-10T08:39:43;101146.72;;;28.36;100.00
32324;BME280;25666;44.350;9.222;2023-06-10T08:44:40;101136.03;;;28.49;100.00
32324;BME280;25666;44.350;9.222;2023-06-10T08:47:13;101143.41;;;28.37;100.00
32324;BME280;25666;44.350;9.222;2023-06-10T08:49:45;101142.75;;;28.55;100.00
32324;BME280;25666;44.350;9.222;2023-06-10T08:52:16;101138.13;;;28.70;100.00
32324;BME280;25666;44.350;9.222;2023-06-10T08:54:57;101149.31;;;28.99;100.00
32324;BME280;25666;44.350;9.222;2023-06-10T08:57:25;101141.59;;;28.65;100.00
32324;BME280;25666;44.350;9.222;2023-06-10T08:59:53;101146.13;;;28.06;100.00
32324;BME280;25666;44.350;9.222;2023-06-10T09:02:19;101143.91;;;27.98;100.00
32324;BME280;25666;44.350;9.222;2023-06-10T09:04:47;101147.28;;;28.43;100.00
32324;BME280;25666;44.350;9.222;2023-06-10T09:07:15;101140.38;;;28.53;100.00
32324;BME280;25666;44.350;9.222;2023-06-10T09:09:42;101150.81;;;28.82;100.00
32324;BME280;25666;44.350;9.222;2023-06-10T09:12:08;101146.50;;;28.64;100.00
32324;BME280;25666;44.350;9.222;2023-06-10T09:14:34;101149.69;;;28.32;100.00
32324;BME280;25666;44.350;9.222;2023-06-10T09:16:59;101148.06;;;28.44;100.00
32324;BME280;25666;44.350;9.222;2023-06-10T09:19:26;101141.03;;;28.23;100.00
32324;BME280;25666;44.350;9.222;2023-06-10T09:21:53;101143.34;;;28.03;100.00
32324;BME280;25666;44.350;9.222;2023-06-10T09:24:21;101148.19;;;27.43;100.00
32324;BME280;25666;44.350;9.222;2023-06-10T09:26:47;101147.94;;;27.37;100.00
32324;BME280;25666;44.350;9.222;2023-06-10T09:29:13;101152.50;;;27.35;100.00
32324;BME280;25666;44.350;9.222;2023-06-10T09:31:39;101158.31;;;27.06;100.00
32324;BME280;25666;44.350;9.222;2023-06-10T09:34:10;101161.69;;;27.93;100.00
32324;BME280;25666;44.350;9.222;2023-06-10T09:36:37;101161.50;;;28.34;100.00
32324;BME280;25666;44.350;9.222;2023-06-10T09:39:04;101155.88;;;28.43;100.00
32324;BME280;25666;44.350;9.222;2023-06-10T09:41:39;101155.22;;;28.27;100.00
32324;BME280;25666;44.350;9.222;2023-06-10T09:44:16;101158.41;;;27.69;100.00
32324;BME280;25666;44.350;9.222;2023-06-10T09:46:44;101169.09;;;27.27;100.00
32324;BME280;25666;44.350;9.222;2023-06-10T09:49:10;101157.47;;;27.72;100.00
32324;BME280;25666;44.350;9.222;2023-06-10T09:51:36;101161.09;;;27.22;100.00
32324;BME280;25666;44.350;9.222;2023-06-10T09:54:04;101159.28;;;27.79;100.00
32324;BME280;25666;44.350;9.222;2023-06-10T09:56:36;101157.13;;;27.57;100.00
32324;BME280;25666;44.350;9.222;2023-06-10T09:59:03;101156.56;;;27.50;100.00
32324;BME280;25666;44.350;9.222;2023-06-10T10:01:31;101150.59;;;27.82;100.00
32324;BME280;25666;44.350;9.222;2023-06-10T10:03:58;101156.44;;;27.53;100.00
32324;BME280;25666;44.350;9.222;2023-06-10T10:06:25;101154.91;;;27.36;100.00
32324;BME280;25666;44.350;9.222;2023-06-10T10:08:51;101163.66;;;27.71;100.00
32324;BME280;25666;44.350;9.222;2023-06-10T10:11:18;101157.91;;;27.83;100.00
32324;BME280;25666;44.350;9.222;2023-06-10T10:13:50;101161.59;;;27.71;100.00
32324;BME280;25666;44.350;9.222;2023-06-10T10:16:21;101153.28;;;27.23;100.00
32324;BME280;25666;44.350;9.222;2023-06-10T10:19:03;101162.19;;;27.53;100.00
32324;BME280;25666;44.350;9.222;2023-06-10T10:21:32;101153.25;;;27.10;100.00
32324;BME280;25666;44.350;9.222;2023-06-10T10:24:18;101156.59;;;27.08;100.00
32324;BME280;25666;44.350;9.222;2023-06-10T10:26:47;101157.22;;;27.54;100.00
32324;BME280;25666;44.350;9.222;2023-06-10T10:29:30;101157.59;;;27.56;100.00
32324;BME280;25666;44.350;9.222;2023-06-10T10:31:57;101152.06;;;27.36;100.00
32324;BME280;25666;44.350;9.222;2023-06-10T10:34:53;101146.44;;;27.20;100.00
32324;BME280;25666;44.350;9.222;2023-06-10T10:37:22;101145.94;;;26.96;100.00
32324;BME280;25666;44.350;9.222;2023-06-10T10:39:48;101153.75;;;27.21;100.00
32324;BME280;25666;44.350;9.222;2023-06-10T10:42:14;101150.53;;;27.06;100.00
32324;BME280;25666;44.350;9.222;2023-06-10T10:44:41;101157.91;;;26.91;100.00
32324;BME280;25666;44.350;9.222;2023-06-10T10:47:08;101168.16;;;26.60;100.00
32324;BME280;25666;44.350;9.222;2023-06-10T10:49:35;101174.47;;;26.68;100.00
32324;BME280;25666;44.350;9.222;2023-06-10T10:52:03;101173.47;;;26.13;100.00
32324;BME280;25666;44.350;9.222;2023-06-10T10:54:32;101174.22;;;26.33;100.00
32324;BME280;25666;44.350;9.222;2023-06-10T10:59:54;101177.22;;;25.78;100.00
32324;BME280;25666;44.350;9.222;2023-06-10T11:02:41;101177.41;;;25.87;100.00
32324;BME280;25666;44.350;9.222;2023-06-10T11:05:10;101169.47;;;25.94;100.00
32324;BME280;25666;44.350;9.222;2023-06-10T11:07:35;101171.25;;;26.04;100.00
32324;BME280;25666;44.350;9.222;2023-06-10T11:10:12;101166.34;;;25.73;100.00
32324;BME280;25666;44.350;9.222;2023-06-10T11:15:18;101180.84;;;25.07;100.00
32324;BME280;25666;44.350;9.222;2023-06-10T11:29:01;101194.72;;;25.04;100.00
32324;BME280;25666;44.350;9.222;2023-06-10T11:31:31;101190.72;;;25.02;100.00
32324;BME280;25666;44.350;9.222;2023-06-10T11:33:59;101199.94;;;24.67;100.00
32324;BME280;25666;44.350;9.222;2023-06-10T11:36:26;101196.50;;;24.56;100.00
32324;BME280;25666;44.350;9.222;2023-06-10T11:38:58;101196.91;;;24.08;100.00
32324;BME280;25666;44.350;9.222;2023-06-10T11:41:25;101192.09;;;23.78;100.00
32324;BME280;25666;44.350;9.222;2023-06-10T11:43:52;101191.00;;;23.45;100.00
32324;BME280;25666;44.350;9.222;2023-06-10T11:46:17;101191.09;;;23.34;100.00
32324;BME280;25666;44.350;9.222;2023-06-10T11:48:57;101194.88;;;23.24;100.00
32324;BME280;25666;44.350;9.222;2023-06-10T11:51:37;101191.75;;;22.44;100.00
32324;BME280;25666;44.350;9.222;2023-06-10T11:54:04;101203.03;;;22.51;100.00
32324;BME280;25666;44.350;9.222;2023-06-10T11:56:31;101220.97;;;22.41;100.00
32324;BME280;25666;44.350;9.222;2023-06-10T11:59:03;101229.56;;;22.30;100.00
32324;BME280;25666;44.350;9.222;2023-06-10T12:01:34;101228.25;;;22.42;100.00
32324;BME280;25666;44.350;9.222;2023-06-10T12:04:02;101225.00;;;22.43;100.00
32324;BME280;25666;44.350;9.222;2023-06-10T12:06:47;101233.84;;;22.08;100.00
32324;BME280;25666;44.350;9.222;2023-06-10T12:09:24;101242.13;;;22.33;100.00
32324;BME280;25666;44.350;9.222;2023-06-10T12:11:54;101231.97;;;22.35;100.00
32324;BME280;25666;44.350;9.222;2023-06-10T12:14:54;101235.53;;;22.43;100.00
32324;BME280;25666;44.350;9.222;2023-06-10T12:17:22;101231.53;;;22.37;100.00
32324;BME280;25666;44.350;9.222;2023-06-10T12:19:48;101232.22;;;22.52;100.00
32324;BME280;25666;44.350;9.222;2023-06-10T12:22:14;101234.38;;;22.37;100.00
32324;BME280;25666;44.350;9.222;2023-06-10T12:24:58;101223.00;;;22.40;100.00
32324;BME280;25666;44.350;9.222;2023-06-10T12:27:28;101229.22;;;22.69;100.00
32324;BME280;25666;44.350;9.222;2023-06-10T12:29:56;101228.72;;;22.78;100.00
32324;BME280;25666;44.350;9.222;2023-06-10T12:35:04;101220.41;;;22.98;100.00
32324;BME280;25666;44.350;9.222;2023-06-10T12:37:30;101226.16;;;22.90;100.00
32324;BME280;25666;44.350;9.222;2023-06-10T12:40:03;101228.28;;;23.17;100.00
32324;BME280;25666;44.350;9.222;2023-06-10T12:42:29;101218.81;;;23.27;100.00
32324;BME280;25666;44.350;9.222;2023-06-10T12:44:55;101212.69;;;23.28;100.00
32324;BME280;25666;44.350;9.222;2023-06-10T12:47:32;101214.41;;;23.22;100.00
32324;BME280;25666;44.350;9.222;2023-06-10T12:50:01;101206.25;;;23.24;100.00
32324;BME280;25666;44.350;9.222;2023-06-10T12:52:26;101203.38;;;23.28;100.00
32324;BME280;25666;44.350;9.222;2023-06-10T12:54:53;101202.19;;;23.25;100.00
32324;BME280;25666;44.350;9.222;2023-06-10T12:57:19;101200.50;;;23.62;100.00
32324;BME280;25666;44.350;9.222;2023-06-10T12:59:44;101197.88;;;23.74;100.00
32324;BME280;25666;44.350;9.222;2023-06-10T13:02:16;101193.72;;;24.06;100.00
32324;BME280;25666;44.350;9.222;2023-06-10T13:04:43;101191.75;;;24.26;100.00
32324;BME280;25666;44.350;9.222;2023-06-10T13:07:10;101187.28;;;24.48;100.00